sensor_id;sensor_type;location;lat;lon;timestamp;P1;durP1;ratioP1;P2;durP2;ratioP2
65162;SDS011;51751;55.714;37.436;2022-12-07T00:01:21;4.85;;;2.20;;
65162;SDS011;51751;55.714;37.436;2022-12-07T00:03:49;4.40;;;2.20;;
65162;SDS011;51751;55.714;37.436;2022-12-07T00:06:18;3.72;;;1.85;;
65162;SDS011;51751;55.714;37.436;2022-12-07T00:08:45;10.60;;;1.95;;
65162;SDS011;51751;55.714;37.436;2022-12-07T00:11:12;5.20;;;2.13;;
65162;SDS011;51751;55.714;37.436;2022-12-07T00:13:40;7.03;;;2.70;;
65162;SDS011;51751;55.714;37.436;2022-12-07T00:16:11;4.22;;;2.15;;
65162;SDS011;51751;55.714;37.436;2022-12-07T00:18:41;3.75;;;1.98;;
65162;SDS011;51751;55.714;37.436;2022-12-07T00:21:11;4.72;;;2.22;;
65162;SDS011;51751;55.714;37.436;2022-12-07T00:23:41;6.60;;;1.83;;
65162;SDS011;51751;55.714;37.436;2022-12-07T00:26:09;2.50;;;1.40;;
65162;SDS011;51751;55.714;37.436;2022-12-07T00:28:40;6.15;;;2.25;;
65162;SDS011;51751;55.714;37.436;2022-12-07T00:31:08;5.70;;;1.98;;
65162;SDS011;51751;55.714;37.436;2022-12-07T00:33:35;6.25;;;2.35;;
65162;SDS011;51751;55.714;37.436;2022-12-07T00:36:02;5.25;;;2.83;;
65162;SDS011;51751;55.714;37.436;2022-12-07T00:38:30;6.90;;;2.88;;
65162;SDS011;51751;55.714;37.436;2022-12-07T00:41:06;9.63;;;3.08;;
65162;SDS011;51751;55.714;37.436;2022-12-07T00:43:35;7.80;;;2.72;;
65162;SDS011;51751;55.714;37.436;2022-12-07T00:46:01;5.85;;;2.78;;
65162;SDS011;51751;55.714;37.436;2022-12-07T00:48:47;4.27;;;2.17;;
65162;SDS011;51751;55.714;37.436;2022-12-07T00:51:14;9.48;;;3.35;;
65162;SDS011;51751;55.714;37.436;2022-12-07T00:53:41;5.82;;;2.35;;
65162;SDS011;51751;55.714;37.436;2022-12-07T00:56:08;7.13;;;2.55;;
65162;SDS011;51751;55.714;37.436;2022-12-07T00:58:36;4.80;;;2.03;;
65162;SDS011;51751;55.714;37.436;2022-12-07T01:03:51;5.78;;;2.35;;
65162;SDS011;51751;55.714;37.436;2022-12-07T01:06:18;4.70;;;2.20;;
65162;SDS011;51751;55.714;37.436;2022-12-07T01:08:44;5.20;;;2.22;;
65162;SDS011;51751;55.714;37.436;2022-12-07T01:11:15;3.65;;;2.20;;
65162;SDS011;51751;55.714;37.436;2022-12-07T01:13:42;3.80;;;2.22;;
65162;SDS011;51751;55.714;37.436;2022-12-07T01:16:11;2.38;;;1.40;;
65162;SDS011;51751;55.714;37.436;2022-12-07T01:18:39;5.90;;;2.22;;
65162;SDS011;51751;55.714;37.436;2022-12-07T01:21:06;8.13;;;2.35;;
65162;SDS011;51751;55.714;37.436;2022-12-07T01:23:35;5.85;;;3.20;;
65162;SDS011;51751;55.714;37.436;2022-12-07T01:26:09;5.18;;;2.47;;
65162;SDS011;51751;55.714;37.436;2022-12-07T01:28:40;7.28;;;2.92;;
65162;SDS011;51751;55.714;37.436;2022-12-07T01:31:07;3.88;;;2.28;;
65162;SDS011;51751;55.714;37.436;2022-12-07T01:33:37;7.70;;;2.60;;
65162;SDS011;51751;55.714;37.436;2022-12-07T01:36:22;4.07;;;2.13;;
65162;SDS011;51751;55.714;37.436;2022-12-07T01:38:50;6.20;;;2.33;;
65162;SDS011;51751;55.714;37.436;2022-12-07T01:41:22;3.63;;;2.05;;
65162;SDS011;51751;55.714;37.436;2022-12-07T01:46:39;5.70;;;2.67;;
65162;SDS011;51751;55.714;37.436;2022-12-07T01:49:07;5.55;;;2.35;;
65162;SDS011;51751;55.714;37.436;2022-12-07T01:51:36;7.78;;;3.03;;
65162;SDS011;51751;55.714;37.436;2022-12-07T01:54:03;5.03;;;2.55;;
65162;SDS011;51751;55.714;37.436;2022-12-07T01:56:29;6.47;;;1.88;;
65162;SDS011;51751;55.714;37.436;2022-12-07T01:58:56;7.38;;;2.42;;
65162;SDS011;51751;55.714;37.436;2022-12-07T02:01:22;7.32;;;2.63;;
65162;SDS011;51751;55.714;37.436;2022-12-07T02:03:48;5.90;;;3.08;;
65162;SDS011;51751;55.714;37.436;2022-12-07T02:06:16;4.63;;;2.45;;
65162;SDS011;51751;55.714;37.436;2022-12-07T02:08:47;9.52;;;3.55;;
65162;SDS011;51751;55.714;37.436;2022-12-07T02:11:13;7.43;;;2.85;;
65162;SDS011;51751;55.714;37.436;2022-12-07T02:13:40;4.53;;;1.92;;
65162;SDS011;51751;55.714;37.436;2022-12-07T02:21:29;6.80;;;2.63;;
65162;SDS011;51751;55.714;37.436;2022-12-07T02:30:26;2.83;;;1.70;;
65162;SDS011;51751;55.714;37.436;2022-12-07T02:32:58;5.22;;;2.70;;
65162;SDS011;51751;55.714;37.436;2022-12-07T02:35:30;7.45;;;2.13;;
65162;SDS011;51751;55.714;37.436;2022-12-07T02:41:30;4.88;;;2.17;;
65162;SDS011;51751;55.714;37.436;2022-12-07T02:44:03;6.63;;;2.63;;
65162;SDS011;51751;55.714;37.436;2022-12-07T02:46:33;4.45;;;2.10;;
65162;SDS011;51751;55.714;37.436;2022-12-07T02:49:03;4.45;;;2.53;;
65162;SDS011;51751;55.714;37.436;2022-12-07T02:51:33;3.45;;;1.88;;
65162;SDS011;51751;55.714;37.436;2022-12-07T02:53:59;6.72;;;2.28;;
65162;SDS011;51751;55.714;37.436;2022-12-07T03:05:03;15.13;;;2.80;;
65162;SDS011;51751;55.714;37.436;2022-12-07T03:07:39;4.38;;;2.20;;
65162;SDS011;51751;55.714;37.436;2022-12-07T03:10:28;6.03;;;2.65;;
65162;SDS011;51751;55.714;37.436;2022-12-07T03:13:04;3.72;;;2.03;;
65162;SDS011;51751;55.714;37.436;2022-12-07T03:18:04;2.33;;;1.83;;
65162;SDS011;51751;55.714;37.436;2022-12-07T03:20:31;4.72;;;2.67;;
65162;SDS011;51751;55.714;37.436;2022-12-07T03:23:01;5.68;;;2.92;;
65162;SDS011;51751;55.714;37.436;2022-12-07T03:25:29;7.50;;;2.95;;
65162;SDS011;51751;55.714;37.436;2022-12-07T03:28:00;6.90;;;3.40;;
65162;SDS011;51751;55.714;37.436;2022-12-07T03:33:45;7.60;;;3.42;;
65162;SDS011;51751;55.714;37.436;2022-12-07T03:36:20;12.38;;;3.50;;
65162;SDS011;51751;55.714;37.436;2022-12-07T03:38:50;6.32;;;2.55;;
65162;SDS011;51751;55.714;37.436;2022-12-07T03:41:22;6.40;;;3.30;;
65162;SDS011;51751;55.714;37.436;2022-12-07T03:43:51;4.90;;;2.58;;
65162;SDS011;51751;55.714;37.436;2022-12-07T03:46:34;8.85;;;3.05;;
65162;SDS011;51751;55.714;37.436;2022-12-07T03:49:17;6.85;;;2.13;;
65162;SDS011;51751;55.714;37.436;2022-12-07T03:54:39;4.32;;;2.22;;
65162;SDS011;51751;55.714;37.436;2022-12-07T03:57:09;6.45;;;2.60;;
65162;SDS011;51751;55.714;37.436;2022-12-07T03:59:39;3.90;;;2.30;;
65162;SDS011;51751;55.714;37.436;2022-12-07T04:02:05;4.63;;;2.15;;
65162;SDS011;51751;55.714;37.436;2022-12-07T04:04:51;11.02;;;3.03;;
65162;SDS011;51751;55.714;37.436;2022-12-07T04:07:17;10.18;;;3.15;;
65162;SDS011;51751;55.714;37.436;2022-12-07T04:09:43;3.97;;;2.13;;
65162;SDS011;51751;55.714;37.436;2022-12-07T04:12:09;4.90;;;2.40;;
65162;SDS011;51751;55.714;37.436;2022-12-07T04:14:36;5.93;;;2.53;;
65162;SDS011;51751;55.714;37.436;2022-12-07T04:17:02;4.90;;;2.60;;
65162;SDS011;51751;55.714;37.436;2022-12-07T04:19:31;9.32;;;3.42;;
65162;SDS011;51751;55.714;37.436;2022-12-07T04:22:01;6.20;;;2.65;;
65162;SDS011;51751;55.714;37.436;2022-12-07T04:24:30;6.05;;;2.58;;
65162;SDS011;51751;55.714;37.436;2022-12-07T04:27:02;8.02;;;3.13;;
65162;SDS011;51751;55.714;37.436;2022-12-07T04:29:28;4.45;;;2.58;;
65162;SDS011;51751;55.714;37.436;2022-12-07T04:31:54;5.30;;;2.67;;
65162;SDS011;51751;55.714;37.436;2022-12-07T04:34:20;3.55;;;1.92;;
65162;SDS011;51751;55.714;37.436;2022-12-07T04:36:49;7.03;;;2.92;;
65162;SDS011;51751;55.714;37.436;2022-12-07T04:39:22;5.25;;;2.47;;
65162;SDS011;51751;55.714;37.436;2022-12-07T04:41:49;9.15;;;2.63;;
65162;SDS011;51751;55.714;37.436;2022-12-07T04:44:15;5.05;;;2.67;;
65162;SDS011;51751;55.714;37.436;2022-12-07T04:46:48;5.60;;;2.72;;
65162;SDS011;51751;55.714;37.436;2022-12-07T04:49:16;11.40;;;2.43;;
65162;SDS011;51751;55.714;37.436;2022-12-07T04:51:43;6.05;;;2.25;;
65162;SDS011;51751;55.714;37.436;2022-12-07T04:54:09;3.55;;;1.80;;
65162;SDS011;51751;55.714;37.436;2022-12-07T04:56:35;5.40;;;2.67;;
65162;SDS011;51751;55.714;37.436;2022-12-07T04:59:02;5.38;;;2.75;;
65162;SDS011;51751;55.714;37.436;2022-12-07T05:01:28;5.55;;;2.60;;
65162;SDS011;51751;55.714;37.436;2022-12-07T05:03:54;3.17;;;2.05;;
65162;SDS011;51751;55.714;37.436;2022-12-07T05:06:23;3.80;;;1.90;;
65162;SDS011;51751;55.714;37.436;2022-12-07T05:08:49;5.90;;;2.42;;
65162;SDS011;51751;55.714;37.436;2022-12-07T05:11:16;3.60;;;2.10;;
65162;SDS011;51751;55.714;37.436;2022-12-07T05:14:02;5.68;;;2.55;;
65162;SDS011;51751;55.714;37.436;2022-12-07T05:16:28;5.07;;;2.35;;
65162;SDS011;51751;55.714;37.436;2022-12-07T05:18:56;4.82;;;2.30;;
65162;SDS011;51751;55.714;37.436;2022-12-07T05:21:22;4.18;;;2.35;;
65162;SDS011;51751;55.714;37.436;2022-12-07T05:23:50;7.93;;;3.15;;
65162;SDS011;51751;55.714;37.436;2022-12-07T05:26:16;4.95;;;2.70;;
65162;SDS011;51751;55.714;37.436;2022-12-07T05:28:42;4.45;;;1.83;;
65162;SDS011;51751;55.714;37.436;2022-12-07T05:31:10;4.78;;;2.22;;
65162;SDS011;51751;55.714;37.436;2022-12-07T05:33:36;5.22;;;2.83;;
65162;SDS011;51751;55.714;37.436;2022-12-07T05:36:05;5.82;;;2.53;;
65162;SDS011;51751;55.714;37.436;2022-12-07T05:38:32;8.25;;;3.13;;
65162;SDS011;51751;55.714;37.436;2022-12-07T05:41:02;14.25;;;3.97;;
65162;SDS011;51751;55.714;37.436;2022-12-07T05:43:29;6.82;;;3.33;;
65162;SDS011;51751;55.714;37.436;2022-12-07T05:45:55;8.18;;;2.78;;
65162;SDS011;51751;55.714;37.436;2022-12-07T05:48:21;6.55;;;2.33;;
65162;SDS011;51751;55.714;37.436;2022-12-07T05:50:48;8.00;;;2.63;;
65162;SDS011;51751;55.714;37.436;2022-12-07T05:53:14;7.05;;;2.58;;
65162;SDS011;51751;55.714;37.436;2022-12-07T05:55:44;8.65;;;3.17;;
65162;SDS011;51751;55.714;37.436;2022-12-07T05:58:13;10.00;;;3.00;;
65162;SDS011;51751;55.714;37.436;2022-12-07T06:00:57;4.05;;;1.92;;
65162;SDS011;51751;55.714;37.436;2022-12-07T06:03:29;10.98;;;2.22;;
65162;SDS011;51751;55.714;37.436;2022-12-07T06:05:55;30.63;;;3.22;;
65162;SDS011;51751;55.714;37.436;2022-12-07T06:08:20;7.05;;;2.63;;
65162;SDS011;51751;55.714;37.436;2022-12-07T06:10:47;4.97;;;2.72;;
65162;SDS011;51751;55.714;37.436;2022-12-07T06:13:35;5.95;;;2.83;;
65162;SDS011;51751;55.714;37.436;2022-12-07T06:16:01;4.50;;;2.72;;
65162;SDS011;51751;55.714;37.436;2022-12-07T06:18:27;6.20;;;2.70;;
65162;SDS011;51751;55.714;37.436;2022-12-07T06:20:53;7.40;;;3.00;;
65162;SDS011;51751;55.714;37.436;2022-12-07T06:23:19;8.43;;;3.67;;
65162;SDS011;51751;55.714;37.436;2022-12-07T06:25:48;8.93;;;2.70;;
65162;SDS011;51751;55.714;37.436;2022-12-07T06:28:14;9.30;;;2.83;;
65162;SDS011;51751;55.714;37.436;2022-12-07T06:30:39;10.32;;;4.13;;
65162;SDS011;51751;55.714;37.436;2022-12-07T06:33:05;9.15;;;3.45;;
65162;SDS011;51751;55.714;37.436;2022-12-07T06:35:34;7.50;;;4.13;;
65162;SDS011;51751;55.714;37.436;2022-12-07T06:38:00;8.43;;;3.10;;
65162;SDS011;51751;55.714;37.436;2022-12-07T06:40:26;8.45;;;3.15;;
65162;SDS011;51751;55.714;37.436;2022-12-07T06:42:51;8.25;;;3.38;;
65162;SDS011;51751;55.714;37.436;2022-12-07T06:45:20;7.80;;;3.80;;
65162;SDS011;51751;55.714;37.436;2022-12-07T06:47:49;8.13;;;3.97;;
65162;SDS011;51751;55.714;37.436;2022-12-07T06:50:15;5.82;;;3.20;;
65162;SDS011;51751;55.714;37.436;2022-12-07T06:52:40;9.10;;;3.42;;
65162;SDS011;51751;55.714;37.436;2022-12-07T06:55:06;19.05;;;3.33;;
65162;SDS011;51751;55.714;37.436;2022-12-07T06:57:32;12.98;;;5.00;;
65162;SDS011;51751;55.714;37.436;2022-12-07T06:59:58;5.80;;;3.03;;
65162;SDS011;51751;55.714;37.436;2022-12-07T07:02:24;6.93;;;3.35;;
65162;SDS011;51751;55.714;37.436;2022-12-07T07:04:50;6.90;;;3.20;;
65162;SDS011;51751;55.714;37.436;2022-12-07T07:07:16;6.25;;;3.05;;
65162;SDS011;51751;55.714;37.436;2022-12-07T07:09:42;8.05;;;3.15;;
65162;SDS011;51751;55.714;37.436;2022-12-07T07:12:08;7.65;;;3.45;;
65162;SDS011;51751;55.714;37.436;2022-12-07T07:14:34;11.45;;;3.33;;
65162;SDS011;51751;55.714;37.436;2022-12-07T07:17:00;6.15;;;2.72;;
65162;SDS011;51751;55.714;37.436;2022-12-07T07:19:26;7.60;;;3.60;;
65162;SDS011;51751;55.714;37.436;2022-12-07T07:21:51;7.40;;;3.40;;
65162;SDS011;51751;55.714;37.436;2022-12-07T07:24:20;8.73;;;2.88;;
65162;SDS011;51751;55.714;37.436;2022-12-07T07:26:46;14.63;;;3.13;;
65162;SDS011;51751;55.714;37.436;2022-12-07T07:29:12;8.75;;;3.20;;
65162;SDS011;51751;55.714;37.436;2022-12-07T07:31:37;6.57;;;3.13;;
65162;SDS011;51751;55.714;37.436;2022-12-07T07:34:04;6.30;;;2.90;;
65162;SDS011;51751;55.714;37.436;2022-12-07T07:36:30;7.55;;;3.10;;
65162;SDS011;51751;55.714;37.436;2022-12-07T07:38:55;9.07;;;4.07;;
65162;SDS011;51751;55.714;37.436;2022-12-07T07:41:21;6.00;;;3.00;;
65162;SDS011;51751;55.714;37.436;2022-12-07T07:43:47;7.60;;;2.72;;
65162;SDS011;51751;55.714;37.436;2022-12-07T07:46:13;6.30;;;3.35;;
65162;SDS011;51751;55.714;37.436;2022-12-07T07:48:39;8.32;;;3.63;;
65162;SDS011;51751;55.714;37.436;2022-12-07T07:51:05;10.93;;;4.13;;
65162;SDS011;51751;55.714;37.436;2022-12-07T07:53:32;8.68;;;3.70;;
65162;SDS011;51751;55.714;37.436;2022-12-07T07:55:58;8.60;;;3.55;;
65162;SDS011;51751;55.714;37.436;2022-12-07T07:58:27;10.65;;;4.15;;
65162;SDS011;51751;55.714;37.436;2022-12-07T08:00:53;4.78;;;2.92;;
65162;SDS011;51751;55.714;37.436;2022-12-07T08:03:20;5.53;;;3.17;;
65162;SDS011;51751;55.714;37.436;2022-12-07T08:05:49;8.57;;;3.92;;
65162;SDS011;51751;55.714;37.436;2022-12-07T08:08:15;8.23;;;3.80;;
65162;SDS011;51751;55.714;37.436;2022-12-07T08:10:41;10.60;;;3.58;;
65162;SDS011;51751;55.714;37.436;2022-12-07T08:13:10;8.45;;;3.45;;
65162;SDS011;51751;55.714;37.436;2022-12-07T08:15:36;7.97;;;3.97;;
65162;SDS011;51751;55.714;37.436;2022-12-07T08:18:03;6.78;;;3.58;;
65162;SDS011;51751;55.714;37.436;2022-12-07T08:20:29;7.90;;;3.75;;
65162;SDS011;51751;55.714;37.436;2022-12-07T08:22:56;7.97;;;3.80;;
65162;SDS011;51751;55.714;37.436;2022-12-07T08:25:25;11.85;;;4.53;;
65162;SDS011;51751;55.714;37.436;2022-12-07T08:27:51;11.18;;;3.95;;
65162;SDS011;51751;55.714;37.436;2022-12-07T08:30:18;7.82;;;4.13;;
65162;SDS011;51751;55.714;37.436;2022-12-07T08:32:47;7.35;;;4.05;;
65162;SDS011;51751;55.714;37.436;2022-12-07T08:35:17;8.40;;;3.47;;
65162;SDS011;51751;55.714;37.436;2022-12-07T08:37:46;10.85;;;4.28;;
65162;SDS011;51751;55.714;37.436;2022-12-07T08:40:12;8.40;;;4.47;;
65162;SDS011;51751;55.714;37.436;2022-12-07T08:42:53;9.82;;;4.25;;
65162;SDS011;51751;55.714;37.436;2022-12-07T08:45:20;8.67;;;4.57;;
65162;SDS011;51751;55.714;37.436;2022-12-07T08:50:12;10.77;;;4.13;;
65162;SDS011;51751;55.714;37.436;2022-12-07T08:52:38;6.78;;;3.30;;
65162;SDS011;51751;55.714;37.436;2022-12-07T08:55:06;9.07;;;4.82;;
65162;SDS011;51751;55.714;37.436;2022-12-07T08:57:35;9.35;;;3.50;;
65162;SDS011;51751;55.714;37.436;2022-12-07T09:00:03;11.45;;;3.67;;
65162;SDS011;51751;55.714;37.436;2022-12-07T09:02:31;7.90;;;3.58;;
65162;SDS011;51751;55.714;37.436;2022-12-07T09:04:57;10.25;;;4.20;;
65162;SDS011;51751;55.714;37.436;2022-12-07T09:07:23;11.65;;;4.10;;
65162;SDS011;51751;55.714;37.436;2022-12-07T09:09:52;8.27;;;3.42;;
65162;SDS011;51751;55.714;37.436;2022-12-07T09:12:18;8.32;;;4.22;;
65162;SDS011;51751;55.714;37.436;2022-12-07T09:14:44;8.25;;;3.95;;
65162;SDS011;51751;55.714;37.436;2022-12-07T09:17:10;9.05;;;3.58;;
65162;SDS011;51751;55.714;37.436;2022-12-07T09:19:40;7.55;;;3.20;;
65162;SDS011;51751;55.714;37.436;2022-12-07T09:22:08;8.80;;;3.70;;
65162;SDS011;51751;55.714;37.436;2022-12-07T09:24:34;12.15;;;3.97;;
65162;SDS011;51751;55.714;37.436;2022-12-07T09:27:00;9.73;;;4.10;;
65162;SDS011;51751;55.714;37.436;2022-12-07T09:29:27;9.07;;;3.50;;
65162;SDS011;51751;55.714;37.436;2022-12-07T09:31:52;7.80;;;3.85;;
65162;SDS011;51751;55.714;37.436;2022-12-07T09:34:18;7.70;;;3.75;;
65162;SDS011;51751;55.714;37.436;2022-12-07T09:36:45;8.40;;;3.75;;
65162;SDS011;51751;55.714;37.436;2022-12-07T09:39:11;13.23;;;3.35;;
65162;SDS011;51751;55.714;37.436;2022-12-07T09:41:37;9.68;;;3.80;;
65162;SDS011;51751;55.714;37.436;2022-12-07T09:44:05;11.35;;;3.67;;
65162;SDS011;51751;55.714;37.436;2022-12-07T09:46:39;7.38;;;3.50;;
65162;SDS011;51751;55.714;37.436;2022-12-07T09:49:09;8.52;;;3.92;;
65162;SDS011;51751;55.714;37.436;2022-12-07T09:51:38;8.80;;;3.40;;
65162;SDS011;51751;55.714;37.436;2022-12-07T09:54:07;6.43;;;2.97;;
65162;SDS011;51751;55.714;37.436;2022-12-07T09:56:34;7.10;;;3.80;;
65162;SDS011;51751;55.714;37.436;2022-12-07T09:59:01;7.30;;;3.60;;
65162;SDS011;51751;55.714;37.436;2022-12-07T10:01:29;7.75;;;3.67;;
65162;SDS011;51751;55.714;37.436;2022-12-07T10:04:09;7.75;;;3.78;;
65162;SDS011;51751;55.714;37.436;2022-12-07T10:06:38;8.27;;;3.25;;
65162;SDS011;51751;55.714;37.436;2022-12-07T10:09:14;7.57;;;3.55;;
65162;SDS011;51751;55.714;37.436;2022-12-07T10:14:38;7.30;;;3.88;;
65162;SDS011;51751;55.714;37.436;2022-12-07T10:20:17;7.25;;;3.90;;
65162;SDS011;51751;55.714;37.436;2022-12-07T10:23:04;6.82;;;3.50;;
65162;SDS011;51751;55.714;37.436;2022-12-07T10:25:34;7.03;;;3.80;;
65162;SDS011;51751;55.714;37.436;2022-12-07T10:30:33;9.75;;;3.90;;
65162;SDS011;51751;55.714;37.436;2022-12-07T10:34:14;7.22;;;4.03;;
65162;SDS011;51751;55.714;37.436;2022-12-07T10:36:38;5.93;;;3.35;;
65162;SDS011;51751;55.714;37.436;2022-12-07T10:39:14;9.90;;;4.13;;
65162;SDS011;51751;55.714;37.436;2022-12-07T10:44:29;9.27;;;4.18;;
65162;SDS011;51751;55.714;37.436;2022-12-07T10:46:59;11.90;;;4.63;;
65162;SDS011;51751;55.714;37.436;2022-12-07T10:52:24;8.50;;;4.10;;
65162;SDS011;51751;55.714;37.436;2022-12-07T10:55:24;7.32;;;3.80;;
65162;SDS011;51751;55.714;37.436;2022-12-07T11:00:25;9.55;;;3.92;;
65162;SDS011;51751;55.714;37.436;2022-12-07T11:06:10;6.57;;;3.60;;
65162;SDS011;51751;55.714;37.436;2022-12-07T11:19:47;8.63;;;3.95;;
65162;SDS011;51751;55.714;37.436;2022-12-07T11:22:38;8.25;;;4.28;;
65162;SDS011;51751;55.714;37.436;2022-12-07T11:33:27;12.10;;;4.45;;
65162;SDS011;51751;55.714;37.436;2022-12-07T11:39:03;10.13;;;4.88;;
65162;SDS011;51751;55.714;37.436;2022-12-07T11:41:55;8.40;;;4.63;;
65162;SDS011;51751;55.714;37.436;2022-12-07T11:52:44;8.95;;;4.63;;
65162;SDS011;51751;55.714;37.436;2022-12-07T11:58:53;10.93;;;5.00;;
65162;SDS011;51751;55.714;37.436;2022-12-07T12:04:47;9.50;;;5.28;;
65162;SDS011;51751;55.714;37.436;2022-12-07T12:06:57;8.18;;;4.85;;
65162;SDS011;51751;55.714;37.436;2022-12-07T12:09:31;8.93;;;5.07;;
65162;SDS011;51751;55.714;37.436;2022-12-07T12:12:20;11.63;;;5.22;;
65162;SDS011;51751;55.714;37.436;2022-12-07T12:15:05;9.68;;;5.35;;
65162;SDS011;51751;55.714;37.436;2022-12-07T12:20:29;11.43;;;5.35;;
65162;SDS011;51751;55.714;37.436;2022-12-07T12:26:02;8.63;;;5.03;;
65162;SDS011;51751;55.714;37.436;2022-12-07T12:31:14;10.23;;;5.43;;
65162;SDS011;51751;55.714;37.436;2022-12-07T12:33:48;9.63;;;5.22;;
65162;SDS011;51751;55.714;37.436;2022-12-07T12:36:19;14.55;;;5.82;;
65162;SDS011;51751;55.714;37.436;2022-12-07T12:46:48;14.65;;;5.63;;
65162;SDS011;51751;55.714;37.436;2022-12-07T12:49:41;12.63;;;5.35;;
65162;SDS011;51751;55.714;37.436;2022-12-07T12:52:45;9.98;;;5.20;;
65162;SDS011;51751;55.714;37.436;2022-12-07T12:57:38;9.40;;;4.88;;
65162;SDS011;51751;55.714;37.436;2022-12-07T13:00:23;13.65;;;5.50;;
65162;SDS011;51751;55.714;37.436;2022-12-07T13:02:53;14.40;;;5.45;;
65162;SDS011;51751;55.714;37.436;2022-12-07T13:05:22;16.52;;;5.28;;
65162;SDS011;51751;55.714;37.436;2022-12-07T13:07:56;14.85;;;5.22;;
65162;SDS011;51751;55.714;37.436;2022-12-07T13:13:35;12.85;;;5.55;;
65162;SDS011;51751;55.714;37.436;2022-12-07T13:15:47;10.05;;;5.45;;
65162;SDS011;51751;55.714;37.436;2022-12-07T13:26:18;10.45;;;5.07;;
65162;SDS011;51751;55.714;37.436;2022-12-07T13:31:48;13.55;;;5.00;;
65162;SDS011;51751;55.714;37.436;2022-12-07T13:34:29;12.07;;;4.75;;
65162;SDS011;51751;55.714;37.436;2022-12-07T13:36:55;8.93;;;4.35;;
65162;SDS011;51751;55.714;37.436;2022-12-07T13:39:22;13.52;;;4.82;;
65162;SDS011;51751;55.714;37.436;2022-12-07T13:41:50;10.50;;;5.22;;
65162;SDS011;51751;55.714;37.436;2022-12-07T13:44:25;11.23;;;5.18;;
65162;SDS011;51751;55.714;37.436;2022-12-07T13:46:54;14.00;;;5.20;;
65162;SDS011;51751;55.714;37.436;2022-12-07T13:49:54;19.52;;;4.88;;
65162;SDS011;51751;55.714;37.436;2022-12-07T13:52:24;9.32;;;4.80;;
65162;SDS011;51751;55.714;37.436;2022-12-07T13:57:48;12.93;;;4.82;;
65162;SDS011;51751;55.714;37.436;2022-12-07T14:00:22;11.32;;;5.35;;
65162;SDS011;51751;55.714;37.436;2022-12-07T14:03:00;10.43;;;4.78;;
65162;SDS011;51751;55.714;37.436;2022-12-07T14:05:31;12.88;;;5.07;;
65162;SDS011;51751;55.714;37.436;2022-12-07T14:13:01;11.02;;;4.63;;
65162;SDS011;51751;55.714;37.436;2022-12-07T14:17:58;10.13;;;4.75;;
65162;SDS011;51751;55.714;37.436;2022-12-07T14:23:03;7.53;;;4.50;;
65162;SDS011;51751;55.714;37.436;2022-12-07T14:25:47;10.02;;;4.70;;
65162;SDS011;51751;55.714;37.436;2022-12-07T14:28:24;10.80;;;4.90;;
65162;SDS011;51751;55.714;37.436;2022-12-07T14:30:50;10.75;;;4.28;;
65162;SDS011;51751;55.714;37.436;2022-12-07T14:33:17;9.57;;;4.60;;
65162;SDS011;51751;55.714;37.436;2022-12-07T14:35:43;10.40;;;4.88;;
65162;SDS011;51751;55.714;37.436;2022-12-07T14:38:09;12.80;;;4.93;;
65162;SDS011;51751;55.714;37.436;2022-12-07T14:40:35;9.80;;;3.95;;
65162;SDS011;51751;55.714;37.436;2022-12-07T14:43:05;12.63;;;4.97;;
65162;SDS011;51751;55.714;37.436;2022-12-07T14:45:34;9.95;;;4.32;;
65162;SDS011;51751;55.714;37.436;2022-12-07T14:48:02;16.35;;;5.22;;
65162;SDS011;51751;55.714;37.436;2022-12-07T14:50:29;11.02;;;5.22;;
65162;SDS011;51751;55.714;37.436;2022-12-07T14:53:06;9.75;;;4.47;;
65162;SDS011;51751;55.714;37.436;2022-12-07T14:55:36;11.77;;;4.68;;
65162;SDS011;51751;55.714;37.436;2022-12-07T14:58:02;7.60;;;3.95;;
65162;SDS011;51751;55.714;37.436;2022-12-07T15:00:29;8.95;;;3.97;;
65162;SDS011;51751;55.714;37.436;2022-12-07T15:02:58;7.72;;;4.63;;
65162;SDS011;51751;55.714;37.436;2022-12-07T15:05:24;10.40;;;4.22;;
65162;SDS011;51751;55.714;37.436;2022-12-07T15:07:51;7.70;;;3.70;;
65162;SDS011;51751;55.714;37.436;2022-12-07T15:10:21;14.80;;;4.45;;
65162;SDS011;51751;55.714;37.436;2022-12-07T15:12:50;8.57;;;4.55;;
65162;SDS011;51751;55.714;37.436;2022-12-07T15:15:16;6.45;;;3.38;;
65162;SDS011;51751;55.714;37.436;2022-12-07T15:17:51;9.57;;;4.28;;
65162;SDS011;51751;55.714;37.436;2022-12-07T15:20:17;7.65;;;3.67;;
65162;SDS011;51751;55.714;37.436;2022-12-07T15:22:43;26.15;;;4.65;;
65162;SDS011;51751;55.714;37.436;2022-12-07T15:25:12;8.25;;;3.90;;
65162;SDS011;51751;55.714;37.436;2022-12-07T15:27:41;9.48;;;4.03;;
65162;SDS011;51751;55.714;37.436;2022-12-07T15:30:09;8.55;;;4.20;;
65162;SDS011;51751;55.714;37.436;2022-12-07T15:32:38;12.05;;;4.85;;
65162;SDS011;51751;55.714;37.436;2022-12-07T15:35:04;9.60;;;4.50;;
65162;SDS011;51751;55.714;37.436;2022-12-07T15:37:30;8.63;;;4.45;;
65162;SDS011;51751;55.714;37.436;2022-12-07T15:39:56;10.10;;;4.68;;
65162;SDS011;51751;55.714;37.436;2022-12-07T15:42:22;11.75;;;4.43;;
65162;SDS011;51751;55.714;37.436;2022-12-07T15:44:48;8.40;;;4.32;;
65162;SDS011;51751;55.714;37.436;2022-12-07T15:47:34;10.55;;;4.20;;
65162;SDS011;51751;55.714;37.436;2022-12-07T15:50:08;6.63;;;3.13;;
65162;SDS011;51751;55.714;37.436;2022-12-07T15:52:54;7.97;;;3.88;;
65162;SDS011;51751;55.714;37.436;2022-12-07T15:55:20;10.18;;;3.95;;
65162;SDS011;51751;55.714;37.436;2022-12-07T15:57:46;15.30;;;5.18;;
65162;SDS011;51751;55.714;37.436;2022-12-07T16:00:13;7.18;;;3.50;;
65162;SDS011;51751;55.714;37.436;2022-12-07T16:02:39;8.23;;;3.95;;
65162;SDS011;51751;55.714;37.436;2022-12-07T16:05:08;9.45;;;4.13;;
65162;SDS011;51751;55.714;37.436;2022-12-07T16:07:36;9.45;;;4.50;;
65162;SDS011;51751;55.714;37.436;2022-12-07T16:10:03;12.20;;;4.93;;
65162;SDS011;51751;55.714;37.436;2022-12-07T16:12:29;10.02;;;3.97;;
65162;SDS011;51751;55.714;37.436;2022-12-07T16:14:55;8.93;;;3.92;;
65162;SDS011;51751;55.714;37.436;2022-12-07T16:17:39;14.45;;;5.05;;
65162;SDS011;51751;55.714;37.436;2022-12-07T16:20:09;9.68;;;4.63;;
65162;SDS011;51751;55.714;37.436;2022-12-07T16:22:35;7.00;;;3.65;;
65162;SDS011;51751;55.714;37.436;2022-12-07T16:25:01;11.15;;;3.88;;
65162;SDS011;51751;55.714;37.436;2022-12-07T16:27:29;8.75;;;4.25;;
65162;SDS011;51751;55.714;37.436;2022-12-07T16:29:58;7.43;;;3.65;;
65162;SDS011;51751;55.714;37.436;2022-12-07T16:32:24;8.70;;;4.45;;
65162;SDS011;51751;55.714;37.436;2022-12-07T16:34:50;13.02;;;5.25;;
65162;SDS011;51751;55.714;37.436;2022-12-07T16:37:17;8.77;;;4.47;;
65162;SDS011;51751;55.714;37.436;2022-12-07T16:39:43;11.35;;;4.30;;
65162;SDS011;51751;55.714;37.436;2022-12-07T16:42:08;11.65;;;4.72;;
65162;SDS011;51751;55.714;37.436;2022-12-07T16:44:34;12.25;;;5.03;;
65162;SDS011;51751;55.714;37.436;2022-12-07T16:47:00;9.73;;;4.20;;
65162;SDS011;51751;55.714;37.436;2022-12-07T16:49:26;9.85;;;4.65;;
65162;SDS011;51751;55.714;37.436;2022-12-07T16:51:52;10.63;;;4.97;;
65162;SDS011;51751;55.714;37.436;2022-12-07T16:54:18;8.82;;;3.55;;
65162;SDS011;51751;55.714;37.436;2022-12-07T16:56:44;10.75;;;4.72;;
65162;SDS011;51751;55.714;37.436;2022-12-07T16:59:10;16.92;;;4.55;;
65162;SDS011;51751;55.714;37.436;2022-12-07T17:01:39;10.30;;;4.72;;
65162;SDS011;51751;55.714;37.436;2022-12-07T17:04:05;8.55;;;3.75;;
65162;SDS011;51751;55.714;37.436;2022-12-07T17:06:32;13.38;;;4.78;;
65162;SDS011;51751;55.714;37.436;2022-12-07T17:09:01;7.50;;;3.92;;